createdAt,value
2017-04-10T00:00:51.408Z,9.98
2017-04-10T00:01:49.297Z,10.55
2017-04-10T00:02:47.220Z,10.91
2017-04-10T00:03:45.632Z,11.36
2017-04-10T00:04:43.453Z,12.03
2017-04-10T00:05:41.947Z,12.10
2017-04-10T00:06:45.127Z,12.00
2017-04-10T00:07:43.128Z,11.90
2017-04-10T00:08:41.003Z,11.65
2017-04-10T00:09:39.231Z,11.37
2017-04-10T00:10:37.076Z,11.62
2017-04-10T00:11:35.028Z,10.24
2017-04-10T00:12:32.847Z,10.03
2017-04-10T00:13:30.793Z,9.45
2017-04-10T00:14:28.724Z,9.29
2017-04-10T00:15:26.615Z,9.30
2017-04-10T00:16:24.499Z,9.79
2017-04-10T00:17:22.445Z,9.44
2017-04-10T00:18:20.296Z,9.41
2017-04-10T00:19:18.119Z,10.15
2017-04-10T00:20:16.151Z,10.60
2017-04-10T00:21:14.158Z,9.96
2017-04-10T00:22:12.063Z,10.16
2017-04-10T00:23:09.920Z,11.08
2017-04-10T00:24:07.737Z,10.86
2017-04-10T00:25:05.582Z,10.17
2017-04-10T00:26:03.473Z,10.62
2017-04-10T00:27:01.437Z,11.34
2017-04-10T00:27:59.301Z,11.01
2017-04-10T00:28:57.128Z,10.44
2017-04-10T00:29:54.980Z,9.76
2017-04-10T00:30:52.831Z,9.31
2017-04-10T00:31:50.719Z,9.49
2017-04-10T00:32:48.556Z,9.22
2017-04-10T00:33:46.408Z,9.88
2017-04-10T00:34:44.233Z,9.33
2017-04-10T00:35:42.238Z,10.09
2017-04-10T00:36:40.164Z,9.97
2017-04-10T00:37:37.962Z,9.33
2017-04-10T00:38:35.866Z,9.74
2017-04-10T00:39:33.675Z,9.66
2017-04-10T00:40:31.689Z,10.26
2017-04-10T00:41:29.503Z,10.51
2017-04-10T00:42:27.544Z,11.44
2017-04-10T00:43:25.354Z,10.60
2017-04-10T00:44:23.156Z,10.81
2017-04-10T00:45:21.003Z,9.65
2017-04-10T00:46:18.812Z,10.66
2017-04-10T00:47:16.819Z,10.69
2017-04-10T00:48:14.627Z,9.92
2017-04-10T00:49:12.700Z,8.88
2017-04-10T00:50:10.539Z,8.73
2017-04-10T00:51:08.366Z,8.92
2017-04-10T00:52:06.177Z,9.39
2017-04-10T00:53:04.084Z,9.97
2017-04-10T00:54:02.064Z,9.54
2017-04-10T00:54:59.877Z,9.64
2017-04-10T00:55:57.787Z,9.10
2017-04-10T00:56:55.613Z,9.64
2017-04-10T00:57:53.435Z,10.10
2017-04-10T00:58:51.607Z,10.57
2017-04-10T00:59:49.480Z,10.70
2017-04-10T01:00:47.387Z,9.82
2017-04-10T01:01:45.239Z,9.86
2017-04-10T01:02:43.104Z,10.85
2017-04-10T01:03:40.957Z,10.15
2017-04-10T01:04:38.769Z,10.35
2017-04-10T01:05:36.715Z,9.81
2017-04-10T01:06:34.576Z,10.61
2017-04-10T01:07:32.480Z,11.30
2017-04-10T01:08:30.381Z,11.09
2017-04-10T01:09:28.193Z,10.40
2017-04-10T01:10:26.046Z,9.01
2017-04-10T01:11:23.912Z,9.38
2017-04-10T01:12:21.801Z,8.67
2017-04-10T01:13:19.691Z,8.41
2017-04-10T01:14:17.560Z,8.74
2017-04-10T01:15:15.392Z,9.12
2017-04-10T01:16:13.444Z,9.60
2017-04-10T01:17:11.278Z,8.63
2017-04-10T01:18:09.185Z,8.98
2017-04-10T01:19:07.062Z,8.63
2017-04-10T01:20:04.944Z,8.61
2017-04-10T01:21:02.796Z,8.32
2017-04-10T01:22:00.612Z,8.84
2017-04-10T01:22:58.519Z,9.13
2017-04-10T01:23:56.392Z,8.86
2017-04-10T01:24:54.254Z,9.28
2017-04-10T01:25:52.167Z,8.81
2017-04-10T01:26:49.991Z,8.64
2017-04-10T01:27:47.963Z,9.42
2017-04-10T01:28:45.892Z,9.03
2017-04-10T01:29:43.760Z,9.24
2017-04-10T01:30:41.586Z,9.67
2017-04-10T01:31:39.482Z,9.67
2017-04-10T01:32:37.345Z,9.07
2017-04-10T01:33:35.159Z,9.19
2017-04-10T01:34:33.428Z,9.55
2017-04-10T01:35:31.262Z,10.25
2017-04-10T01:36:29.156Z,9.92
2017-04-10T01:37:26.967Z,9.82
2017-04-10T01:38:24.811Z,10.42
2017-04-10T01:39:22.700Z,10.08
2017-04-10T01:40:20.523Z,10.51
2017-04-10T01:41:18.651Z,9.59
2017-04-10T01:42:16.578Z,8.72
2017-04-10T01:43:14.447Z,8.99
2017-04-10T01:44:12.260Z,8.28
2017-04-10T01:45:10.106Z,8.52
2017-04-10T01:46:07.932Z,8.27
2017-04-10T01:47:05.823Z,8.47
2017-04-10T01:48:03.765Z,8.45
2017-04-10T01:49:01.568Z,8.28
2017-04-10T01:49:59.409Z,8.85
2017-04-10T01:50:57.319Z,8.66
2017-04-10T01:51:55.116Z,8.27
2017-04-10T01:52:53.048Z,7.80
2017-04-10T01:53:50.843Z,8.05
2017-04-10T01:54:48.693Z,8.02
2017-04-10T01:55:46.519Z,8.70
2017-04-10T01:56:44.568Z,8.76
2017-04-10T01:57:42.413Z,9.14
2017-04-10T01:58:40.236Z,8.49
2017-04-10T01:59:38.088Z,8.72
2017-04-10T02:00:35.976Z,8.00
2017-04-10T02:01:33.956Z,8.90
2017-04-10T02:02:32.084Z,9.58
2017-04-10T02:03:29.968Z,9.68
2017-04-10T02:04:27.753Z,9.22
2017-04-10T02:05:25.608Z,10.03
2017-04-10T02:06:23.448Z,9.82
2017-04-10T02:07:21.272Z,9.16
2017-04-10T02:08:19.140Z,8.55
2017-04-10T02:09:17.011Z,8.31
2017-04-10T02:10:14.864Z,8.40
2017-04-10T02:11:12.714Z,8.66
2017-04-10T02:12:10.552Z,7.67
2017-04-10T02:13:08.444Z,7.75
2017-04-10T02:14:06.294Z,7.54
2017-04-10T02:15:04.297Z,8.24
2017-04-10T02:16:02.104Z,8.18
2017-04-10T02:17:00.060Z,7.93
2017-04-10T02:17:57.896Z,8.35
2017-04-10T02:18:55.748Z,8.49
2017-04-10T02:19:53.608Z,9.31
2017-04-10T02:20:52.191Z,9.35
2017-04-10T02:21:50.139Z,10.12
2017-04-10T02:22:48.019Z,10.59
2017-04-10T02:23:45.916Z,10.53
2017-04-10T02:24:43.822Z,10.59
2017-04-10T02:25:41.742Z,10.53
2017-04-10T02:26:39.667Z,9.72
2017-04-10T02:27:37.469Z,8.98
2017-04-10T02:28:35.378Z,8.97
2017-04-10T02:29:33.264Z,9.06
2017-04-10T02:30:31.099Z,9.65
2017-04-10T02:31:29.085Z,8.73
2017-04-10T02:32:26.932Z,8.20
2017-04-10T02:33:24.931Z,9.13
2017-04-10T02:34:22.768Z,9.27
2017-04-10T02:35:20.668Z,9.84
2017-04-10T02:36:18.493Z,10.07
2017-04-10T02:37:16.348Z,10.47
2017-04-10T02:38:14.336Z,10.51
2017-04-10T02:39:12.204Z,8.85
2017-04-10T02:40:10.145Z,8.71
2017-04-10T02:41:07.988Z,8.62
2017-04-10T02:42:05.928Z,7.80
2017-04-10T02:43:03.775Z,7.78
2017-04-10T02:44:01.634Z,7.58
2017-04-10T02:44:59.568Z,7.71
2017-04-10T02:45:57.362Z,7.84
2017-04-10T02:46:55.332Z,7.78
2017-04-10T02:47:53.124Z,7.62
2017-04-10T02:48:51.095Z,7.54
2017-04-10T02:49:48.944Z,7.77
2017-04-10T02:50:46.747Z,7.93
2017-04-10T02:51:44.723Z,7.50
2017-04-10T02:52:42.576Z,7.74
2017-04-10T02:53:40.552Z,7.72
2017-04-10T02:54:38.384Z,8.06
2017-04-10T02:55:36.324Z,9.29
2017-04-10T02:56:34.159Z,9.39
2017-04-10T02:57:31.996Z,10.31
2017-04-10T02:58:29.909Z,10.85
2017-04-10T02:59:27.730Z,10.82
2017-04-10T03:00:25.941Z,10.87
2017-04-10T03:01:23.757Z,10.51
2017-04-10T03:02:21.640Z,10.49
2017-04-10T03:03:19.509Z,10.59
2017-04-10T03:04:17.305Z,10.57
2017-04-10T03:05:15.099Z,9.89
2017-04-10T03:06:12.955Z,8.69
2017-04-10T03:07:10.928Z,7.64
2017-04-10T03:08:08.760Z,7.49
2017-04-10T03:09:06.726Z,7.87
2017-04-10T03:10:04.583Z,7.78
2017-04-10T03:11:02.379Z,7.40
2017-04-10T03:12:00.319Z,7.72
2017-04-10T03:12:58.125Z,7.28
2017-04-10T03:13:56.112Z,7.58
2017-04-10T03:14:54.028Z,7.84
2017-04-10T03:15:51.810Z,7.23
2017-04-10T03:16:49.771Z,7.72
2017-04-10T03:17:47.619Z,7.21
2017-04-10T03:18:45.511Z,7.59
2017-04-10T03:19:43.327Z,7.15
2017-04-10T03:20:41.363Z,8.08
2017-04-10T03:21:39.173Z,8.43
2017-04-10T03:22:37.119Z,7.67
2017-04-10T03:23:35.028Z,8.23
2017-04-10T03:24:32.847Z,9.19
2017-04-10T03:25:30.751Z,9.88
2017-04-10T03:26:28.547Z,9.32
2017-04-10T03:27:26.564Z,9.07
2017-04-10T03:28:24.404Z,9.29
2017-04-10T03:29:22.232Z,10.24
2017-04-10T03:30:20.148Z,10.65
2017-04-10T03:31:17.968Z,9.52
2017-04-10T03:32:16.139Z,10.29
2017-04-10T03:33:13.949Z,10.55
2017-04-10T03:34:11.814Z,10.65
2017-04-10T03:35:09.709Z,10.69
2017-04-10T03:36:07.639Z,9.08
2017-04-10T03:37:05.490Z,9.34
2017-04-10T03:38:03.393Z,8.41
2017-04-10T03:39:01.236Z,8.16
2017-04-10T03:39:59.193Z,8.16
2017-04-10T03:40:57.061Z,8.57
2017-04-10T03:41:54.937Z,8.34
2017-04-10T03:42:52.769Z,7.76
2017-04-10T03:43:50.642Z,8.41
2017-04-10T03:44:48.474Z,9.20
2017-04-10T03:45:46.438Z,8.07
2017-04-10T03:46:44.244Z,8.10
2017-04-10T03:47:42.300Z,7.57
2017-04-10T03:48:40.171Z,9.11
2017-04-10T03:49:37.968Z,9.41
2017-04-10T03:50:35.888Z,9.34
2017-04-10T03:51:33.696Z,9.47
2017-04-10T03:52:31.619Z,9.09
2017-04-10T03:53:29.452Z,9.71
2017-04-10T03:54:27.464Z,9.45
2017-04-10T03:55:25.274Z,8.96
2017-04-10T03:56:23.147Z,8.14
2017-04-10T03:57:20.998Z,7.80
2017-04-10T03:58:18.889Z,7.41
2017-04-10T03:59:16.792Z,7.69
2017-04-10T04:00:14.620Z,7.72
2017-04-10T04:01:12.567Z,7.55
2017-04-10T04:02:10.384Z,8.14
2017-04-10T04:03:08.371Z,7.92
2017-04-10T04:04:06.240Z,8.10
2017-04-10T04:05:04.085Z,9.23
2017-04-10T04:06:02.021Z,8.06
2017-04-10T04:06:59.854Z,9.21
2017-04-10T04:07:57.771Z,9.68
2017-04-10T04:08:55.577Z,9.01
2017-04-10T04:09:53.807Z,9.53
2017-04-10T04:10:51.667Z,9.67
2017-04-10T04:11:49.461Z,10.09
2017-04-10T04:12:47.320Z,10.45
2017-04-10T04:13:45.132Z,9.61
2017-04-10T04:14:42.912Z,8.46
2017-04-10T04:15:40.755Z,9.29
2017-04-10T04:16:38.719Z,9.62
2017-04-10T04:17:36.575Z,10.29
2017-04-10T04:18:34.392Z,8.87
2017-04-10T04:19:32.461Z,9.06
2017-04-10T04:20:31.260Z,8.44
2017-04-10T04:21:29.142Z,8.46
2017-04-10T04:22:26.978Z,7.94
2017-04-10T04:23:24.836Z,7.97
2017-04-10T04:24:22.663Z,8.58
2017-04-10T04:25:20.507Z,9.22
2017-04-10T04:26:18.359Z,8.52
2017-04-10T04:27:16.152Z,9.40
2017-04-10T04:28:14.152Z,9.86
2017-04-10T04:29:11.984Z,10.31
2017-04-10T04:30:09.857Z,9.44
2017-04-10T04:31:07.742Z,10.05
2017-04-10T04:32:05.576Z,9.95
2017-04-10T04:33:03.468Z,8.97
2017-04-10T04:34:01.332Z,9.53
2017-04-10T04:34:59.451Z,10.10
2017-04-10T04:35:57.259Z,8.78
2017-04-10T04:36:55.195Z,9.73
2017-04-10T04:37:53.047Z,10.35
2017-04-10T04:38:50.940Z,8.94
2017-04-10T04:39:48.839Z,9.02
2017-04-10T04:40:46.722Z,9.25
2017-04-10T04:41:44.593Z,8.50
2017-04-10T04:42:42.440Z,9.12
2017-04-10T04:43:40.248Z,9.56
2017-04-10T04:44:38.245Z,9.18
2017-04-10T04:45:36.081Z,9.03
2017-04-10T04:46:33.980Z,9.20
2017-04-10T04:47:31.990Z,9.49
2017-04-10T04:48:29.847Z,9.85
2017-04-10T04:49:27.660Z,9.74
2017-04-10T04:50:25.560Z,9.54
2017-04-10T04:51:23.412Z,9.85
2017-04-10T04:52:21.229Z,10.38
2017-04-10T04:53:19.217Z,10.36
2017-04-10T04:54:17.067Z,10.62
2017-04-10T04:55:15.052Z,10.39
2017-04-10T04:56:12.894Z,10.98
2017-04-10T04:57:10.751Z,11.10
2017-04-10T04:58:08.635Z,10.85
2017-04-10T04:59:06.494Z,10.94
2017-04-10T05:00:04.484Z,11.07
2017-04-10T05:01:02.313Z,11.13
2017-04-10T05:02:00.281Z,11.40
2017-04-10T05:02:58.097Z,11.53
2017-04-10T05:03:55.901Z,11.34
2017-04-10T05:04:53.840Z,11.36
2017-04-10T05:05:51.645Z,11.41
2017-04-10T05:06:49.727Z,11.60
2017-04-10T05:07:47.554Z,11.60
2017-04-10T05:08:45.466Z,11.81
2017-04-10T05:09:43.300Z,11.69
2017-04-10T05:10:41.157Z,11.73
2017-04-10T05:11:39.059Z,11.71
2017-04-10T05:12:36.879Z,11.83
2017-04-10T05:13:34.872Z,11.70
2017-04-10T05:14:32.723Z,11.73
2017-04-10T05:15:30.656Z,11.88
2017-04-10T05:16:28.498Z,11.77
2017-04-10T05:17:26.340Z,11.78
2017-04-10T05:18:24.239Z,11.93
2017-04-10T05:19:22.064Z,11.81
2017-04-10T05:20:20.049Z,11.82
2017-04-10T05:21:17.925Z,11.74
2017-04-10T05:22:15.837Z,11.76
2017-04-10T05:23:13.663Z,11.90
2017-04-10T05:24:11.506Z,11.87
2017-04-10T05:25:09.472Z,11.93
2017-04-10T05:26:07.472Z,12.07
2017-04-10T05:27:05.345Z,11.83
2017-04-10T05:28:03.180Z,12.20
2017-04-10T05:29:01.126Z,12.13
2017-04-10T05:29:58.949Z,11.92
2017-04-10T05:30:56.910Z,12.01
2017-04-10T05:31:54.795Z,11.90
2017-04-10T05:32:52.716Z,11.99
2017-04-10T05:33:50.613Z,12.14
2017-04-10T05:34:48.446Z,12.05
2017-04-10T05:35:46.317Z,12.07
2017-04-10T05:36:44.238Z,12.04
2017-04-10T05:37:42.068Z,11.87
2017-04-10T05:38:39.991Z,11.89
2017-04-10T05:39:37.815Z,11.96
2017-04-10T05:40:35.704Z,12.09
2017-04-10T05:41:33.589Z,12.12
2017-04-10T05:42:31.471Z,12.07
2017-04-10T05:43:29.389Z,12.01
2017-04-10T05:44:27.275Z,12.10
2017-04-10T05:45:25.164Z,11.96
2017-04-10T05:46:23.001Z,11.95
2017-04-10T05:47:20.943Z,11.86
2017-04-10T05:48:18.842Z,12.14
2017-04-10T05:49:16.667Z,12.21
2017-04-10T05:50:14.530Z,12.11
2017-04-10T05:51:12.433Z,12.15
2017-04-10T05:52:10.447Z,12.21
2017-04-10T05:53:08.271Z,12.13
2017-04-10T05:54:06.149Z,12.14
2017-04-10T05:55:04.211Z,12.14
2017-04-10T05:56:02.152Z,12.28
2017-04-10T05:57:00.008Z,12.22
2017-04-10T05:57:57.852Z,12.13
2017-04-10T05:58:55.738Z,12.21
2017-04-10T05:59:53.691Z,12.32
2017-04-10T06:00:51.528Z,12.23
2017-04-10T06:01:49.395Z,12.25
2017-04-10T06:02:47.276Z,12.27
2017-04-10T06:03:45.182Z,12.36
2017-04-10T06:04:43.023Z,12.31
2017-04-10T06:05:40.888Z,12.24
2017-04-10T06:06:38.768Z,12.22
2017-04-10T06:07:36.597Z,12.29
2017-04-10T06:08:35.725Z,12.36
2017-04-10T06:09:33.560Z,12.49
2017-04-10T06:10:31.576Z,12.52
2017-04-10T06:11:29.447Z,12.54
2017-04-10T06:12:27.426Z,12.52
2017-04-10T06:13:25.293Z,12.51
2017-04-10T06:14:23.181Z,12.48
2017-04-10T06:15:21.238Z,12.48
2017-04-10T06:16:19.068Z,12.42
2017-04-10T06:17:16.916Z,12.53
2017-04-10T06:18:14.731Z,12.61
2017-04-10T06:19:12.718Z,12.61
2017-04-10T06:20:10.621Z,12.64
2017-04-10T06:21:08.461Z,12.63
2017-04-10T06:22:06.305Z,12.60
2017-04-10T06:23:04.169Z,12.72
2017-04-10T06:24:02.109Z,12.64
2017-04-10T06:24:59.940Z,12.67
2017-04-10T06:25:57.886Z,12.65
2017-04-10T06:26:55.739Z,12.64
2017-04-10T06:27:53.547Z,12.70
2017-04-10T06:28:51.503Z,12.73
2017-04-10T06:29:49.357Z,12.71
2017-04-10T06:30:47.229Z,12.72
2017-04-10T06:31:45.076Z,12.74
2017-04-10T06:32:43.032Z,12.80
2017-04-10T06:33:40.929Z,12.82
2017-04-10T06:34:38.773Z,12.79
2017-04-10T06:35:36.631Z,12.87
2017-04-10T06:36:34.569Z,12.83
2017-04-10T06:37:33.235Z,12.80
2017-04-10T06:38:31.116Z,12.81
2017-04-10T06:39:28.999Z,12.82
2017-04-10T06:40:26.864Z,12.88
2017-04-10T06:41:24.756Z,12.83
2017-04-10T06:42:22.618Z,12.86
2017-04-10T06:43:20.501Z,12.77
2017-04-10T06:44:18.397Z,12.76
2017-04-10T06:45:16.329Z,12.77
2017-04-10T06:46:14.184Z,12.78
2017-04-10T06:47:12.041Z,12.86
2017-04-10T06:48:09.856Z,12.85
2017-04-10T06:49:07.748Z,12.84
2017-04-10T06:50:05.739Z,12.87
2017-04-10T06:51:03.639Z,12.85
2017-04-10T06:52:01.516Z,12.88
2017-04-10T06:52:59.391Z,12.90
2017-04-10T06:53:57.221Z,12.99
2017-04-10T06:54:55.071Z,12.98
2017-04-10T06:55:52.930Z,12.93
2017-04-10T06:56:50.807Z,12.91
2017-04-10T06:57:48.733Z,12.82
2017-04-10T06:58:46.555Z,12.78
2017-04-10T06:59:44.506Z,12.76
2017-04-10T07:00:42.451Z,12.80
2017-04-10T07:01:40.377Z,12.84
2017-04-10T07:02:38.336Z,12.94
2017-04-10T07:03:36.198Z,12.67
2017-04-10T07:04:34.023Z,12.57
2017-04-10T07:05:31.849Z,12.78
2017-04-10T07:06:29.664Z,12.90
2017-04-10T07:07:27.563Z,12.90
2017-04-10T07:08:25.452Z,12.78
2017-04-10T07:09:23.483Z,12.80
2017-04-10T07:10:21.329Z,12.93
2017-04-10T07:11:19.545Z,12.99
2017-04-10T07:12:17.393Z,12.84
2017-04-10T07:13:15.220Z,12.69
2017-04-10T07:14:13.068Z,12.76
2017-04-10T07:15:10.920Z,12.74
2017-04-10T07:16:08.777Z,12.67
2017-04-10T07:17:06.647Z,12.66
2017-04-10T07:18:04.523Z,12.75
2017-04-10T07:19:02.348Z,12.98
2017-04-10T07:20:00.166Z,12.98
2017-04-10T07:20:58.002Z,13.00
2017-04-10T07:21:55.978Z,13.12
2017-04-10T07:22:53.862Z,12.96
2017-04-10T07:23:51.720Z,13.03
2017-04-10T07:24:49.601Z,12.94
2017-04-10T07:25:47.444Z,12.67
2017-04-10T07:26:45.360Z,12.94
2017-04-10T07:27:43.273Z,12.92
2017-04-10T07:28:41.141Z,13.00
2017-04-10T07:29:39.119Z,12.99
2017-04-10T07:30:37.047Z,12.83
2017-04-10T07:31:34.909Z,12.63
2017-04-10T07:32:32.765Z,12.70
2017-04-10T07:33:30.656Z,12.98
2017-04-10T07:34:28.512Z,13.10
2017-04-10T07:35:26.387Z,13.12
2017-04-10T07:36:24.332Z,12.92
2017-04-10T07:37:22.171Z,13.00
2017-04-10T07:38:20.136Z,13.23
2017-04-10T07:39:17.979Z,13.12
2017-04-10T07:40:15.981Z,12.78
2017-04-10T07:41:13.784Z,12.85
2017-04-10T07:42:11.651Z,13.01
2017-04-10T07:43:09.523Z,13.17
2017-04-10T07:44:07.411Z,13.12
2017-04-10T07:45:05.375Z,12.96
2017-04-10T07:46:03.260Z,12.65
2017-04-10T07:47:01.107Z,12.94
2017-04-10T07:47:58.963Z,12.90
2017-04-10T07:48:56.816Z,12.91
2017-04-10T07:49:54.852Z,12.73
2017-04-10T07:50:52.738Z,12.97
2017-04-10T07:51:50.637Z,13.08
2017-04-10T07:52:48.500Z,13.19
2017-04-10T07:53:46.352Z,13.00
2017-04-10T07:54:44.154Z,13.01
2017-04-10T07:55:41.994Z,13.23
2017-04-10T07:56:39.936Z,13.31
2017-04-10T07:57:37.846Z,13.45
2017-04-10T07:58:35.724Z,13.07
2017-04-10T07:59:33.584Z,13.20
2017-04-10T08:00:31.441Z,13.29
2017-04-10T08:01:29.393Z,13.35
2017-04-10T08:02:27.227Z,13.04
2017-04-10T08:03:25.074Z,13.09
2017-04-10T08:04:22.911Z,13.49
2017-04-10T08:05:20.837Z,13.50
2017-04-10T08:06:18.782Z,13.02
2017-04-10T08:07:16.838Z,13.31
2017-04-10T08:08:15.000Z,12.81
2017-04-10T08:09:12.825Z,13.07
2017-04-10T08:10:10.699Z,13.51
2017-04-10T08:11:08.514Z,13.62
2017-04-10T08:12:06.332Z,13.73
2017-04-10T08:13:04.244Z,13.54
2017-04-10T08:14:02.075Z,13.75
2017-04-10T08:14:59.919Z,13.87
2017-04-10T08:15:57.768Z,13.84
2017-04-10T08:16:55.613Z,13.76
2017-04-10T08:17:53.509Z,13.57
2017-04-10T08:18:51.315Z,13.41
2017-04-10T08:19:49.208Z,13.40
2017-04-10T08:20:47.064Z,13.68
2017-04-10T08:21:44.930Z,13.60
2017-04-10T08:22:42.779Z,13.66
2017-04-10T08:23:40.637Z,13.59
2017-04-10T08:24:38.452Z,13.89
2017-04-10T08:25:36.407Z,13.84
2017-04-10T08:26:34.268Z,13.97
2017-04-10T08:27:32.160Z,13.62
2017-04-10T08:28:30.007Z,13.51
2017-04-10T08:29:27.838Z,13.50
2017-04-10T08:30:25.780Z,13.83
2017-04-10T08:31:23.625Z,13.78
2017-04-10T08:32:21.609Z,13.87
2017-04-10T08:33:19.432Z,13.72
2017-04-10T08:34:17.341Z,13.94
2017-04-10T08:35:15.225Z,13.84
2017-04-10T08:36:13.046Z,14.06
2017-04-10T08:37:10.957Z,14.05
2017-04-10T08:38:08.749Z,13.99
2017-04-10T08:39:06.638Z,13.66
2017-04-10T08:40:04.517Z,13.44
2017-04-10T08:41:02.404Z,13.60
2017-04-10T08:42:00.253Z,13.66
2017-04-10T08:42:58.093Z,13.48
2017-04-10T08:43:55.929Z,13.45
2017-04-10T08:44:53.769Z,13.29
2017-04-10T08:45:51.647Z,13.18
2017-04-10T08:46:49.439Z,13.71
2017-04-10T08:47:47.291Z,13.67
2017-04-10T08:48:45.128Z,13.31
2017-04-10T08:49:42.947Z,13.28
2017-04-10T08:50:40.773Z,13.34
2017-04-10T08:51:38.658Z,13.72
2017-04-10T08:52:36.484Z,13.55
2017-04-10T08:53:34.369Z,13.55
2017-04-10T08:54:32.257Z,13.55
2017-04-10T08:55:30.096Z,13.99
2017-04-10T08:56:28.056Z,14.06
2017-04-10T08:57:25.884Z,13.76
2017-04-10T08:58:23.695Z,13.58
2017-04-10T08:59:21.605Z,13.71
2017-04-10T09:00:19.460Z,13.53
2017-04-10T09:01:17.360Z,13.48
2017-04-10T09:02:15.209Z,13.57
2017-04-10T09:03:13.156Z,13.38
2017-04-10T09:04:11.046Z,13.36
2017-04-10T09:05:08.897Z,13.28
2017-04-10T09:06:06.867Z,13.38
2017-04-10T09:07:04.730Z,13.49
2017-04-10T09:08:02.617Z,13.29
2017-04-10T09:09:00.480Z,13.39
2017-04-10T09:09:58.437Z,13.35
2017-04-10T09:10:56.283Z,13.47
2017-04-10T09:11:54.113Z,13.21
2017-04-10T09:12:52.015Z,13.40
2017-04-10T09:13:49.864Z,13.53
2017-04-10T09:14:47.828Z,13.35
2017-04-10T09:15:45.677Z,13.49
2017-04-10T09:16:43.664Z,13.55
2017-04-10T09:17:41.514Z,13.31
2017-04-10T09:18:39.441Z,13.58
2017-04-10T09:19:37.275Z,13.45
2017-04-10T09:20:35.133Z,13.52
2017-04-10T09:21:32.996Z,13.60
2017-04-10T09:22:30.889Z,13.50
2017-04-10T09:23:28.712Z,13.58
2017-04-10T09:24:26.577Z,13.52
2017-04-10T09:25:24.404Z,13.66
2017-04-10T09:26:22.368Z,13.57
2017-04-10T09:27:20.219Z,13.32
2017-04-10T09:28:18.165Z,13.34
2017-04-10T09:29:15.989Z,13.42
2017-04-10T09:30:13.923Z,13.44
2017-04-10T09:31:11.785Z,13.43
2017-04-10T09:32:09.609Z,13.58
2017-04-10T09:33:07.545Z,13.56
2017-04-10T09:34:05.409Z,13.39
2017-04-10T09:35:03.313Z,13.28
2017-04-10T09:36:01.145Z,13.27
2017-04-10T09:36:59.144Z,13.44
2017-04-10T09:37:56.983Z,13.54
2017-04-10T09:38:54.845Z,13.38
2017-04-10T09:39:52.725Z,13.50
2017-04-10T09:40:50.570Z,13.40
2017-04-10T09:41:48.507Z,12.92
2017-04-10T09:42:46.377Z,13.18
2017-04-10T09:43:44.316Z,13.06
2017-04-10T09:44:42.160Z,13.19
2017-04-10T09:45:39.989Z,13.18
2017-04-10T09:46:37.965Z,13.24
2017-04-10T09:47:35.816Z,12.95
2017-04-10T09:48:33.676Z,13.15
2017-04-10T09:49:31.533Z,13.52
2017-04-10T09:50:29.459Z,13.23
2017-04-10T09:51:27.349Z,13.23
2017-04-10T09:52:25.224Z,13.29
2017-04-10T09:53:23.639Z,13.22
2017-04-10T09:54:21.568Z,13.23
2017-04-10T09:55:19.462Z,13.35
2017-04-10T09:56:17.286Z,13.54
2017-04-10T09:57:15.099Z,13.29
2017-04-10T09:58:12.959Z,13.41
2017-04-10T09:59:10.921Z,13.35
2017-04-10T10:00:08.956Z,13.59
2017-04-10T10:01:06.808Z,13.45
2017-04-10T10:02:04.616Z,13.52
2017-04-10T10:03:02.536Z,13.54
2017-04-10T10:04:00.364Z,13.47
2017-04-10T10:04:58.204Z,13.61
2017-04-10T10:05:56.131Z,13.77
2017-04-10T10:06:53.948Z,14.00
2017-04-10T10:07:51.767Z,13.95
2017-04-10T10:08:49.612Z,14.30
2017-04-10T10:09:47.489Z,14.17
2017-04-10T10:10:45.316Z,14.41
2017-04-10T10:11:43.201Z,14.07
2017-04-10T10:12:41.031Z,13.88
2017-04-10T10:13:38.891Z,14.26
2017-04-10T10:14:36.775Z,13.83
2017-04-10T10:15:34.653Z,13.75
2017-04-10T10:16:32.502Z,14.01
2017-04-10T10:17:30.421Z,13.93
2017-04-10T10:18:28.251Z,13.91
2017-04-10T10:19:26.091Z,13.80
2017-04-10T10:20:24.051Z,13.54
2017-04-10T10:21:21.916Z,13.52
2017-04-10T10:22:19.780Z,13.90
2017-04-10T10:23:17.594Z,13.99
2017-04-10T10:24:15.449Z,13.89
2017-04-10T10:25:13.306Z,13.98
2017-04-10T10:26:11.167Z,14.14
2017-04-10T10:27:09.022Z,13.91
2017-04-10T10:28:06.858Z,13.64
2017-04-10T10:29:04.720Z,13.91
2017-04-10T10:30:02.599Z,13.86
2017-04-10T10:31:00.439Z,13.47
2017-04-10T10:31:58.336Z,13.12
2017-04-10T10:32:56.219Z,13.27
2017-04-10T10:33:54.042Z,13.10
2017-04-10T10:34:51.912Z,13.00
2017-04-10T10:35:49.737Z,13.09
2017-04-10T10:36:47.600Z,13.01
2017-04-10T10:37:45.482Z,13.54
2017-04-10T10:38:43.345Z,13.62
2017-04-10T10:39:41.316Z,13.09
2017-04-10T10:40:39.203Z,12.85
2017-04-10T10:41:37.045Z,13.29
2017-04-10T10:42:34.891Z,13.59
2017-04-10T10:43:32.725Z,13.41
2017-04-10T10:44:30.692Z,13.50
2017-04-10T10:45:28.519Z,13.85
2017-04-10T10:46:26.454Z,13.98
2017-04-10T10:47:24.329Z,13.88
2017-04-10T10:48:22.273Z,13.77
2017-04-10T10:49:20.143Z,13.89
2017-04-10T10:50:17.999Z,14.00
2017-04-10T10:51:15.952Z,14.01
2017-04-10T10:52:13.826Z,14.01
2017-04-10T10:53:11.737Z,14.25
2017-04-10T10:54:09.627Z,14.35
2017-04-10T10:55:07.513Z,14.28
2017-04-10T10:56:05.364Z,14.12
2017-04-10T10:57:03.220Z,13.86
2017-04-10T10:58:01.154Z,14.31
2017-04-10T10:58:58.993Z,13.98
2017-04-10T10:59:56.908Z,14.09
2017-04-10T11:00:54.727Z,14.23
2017-04-10T11:01:52.760Z,14.36
2017-04-10T11:02:50.608Z,14.30
2017-04-10T11:03:48.471Z,14.35
2017-04-10T11:04:46.325Z,14.16
2017-04-10T11:05:44.215Z,14.26
2017-04-10T11:06:42.218Z,14.21
2017-04-10T11:07:40.136Z,13.97
2017-04-10T11:08:37.967Z,13.95
2017-04-10T11:09:35.801Z,14.10
2017-04-10T11:10:33.616Z,14.23
2017-04-10T11:11:31.573Z,14.00
2017-04-10T11:12:29.399Z,14.16
2017-04-10T11:13:27.339Z,13.80
2017-04-10T11:14:25.176Z,13.93
2017-04-10T11:15:23.130Z,13.61
2017-04-10T11:16:20.992Z,13.86
2017-04-10T11:17:18.861Z,13.85
2017-04-10T11:18:16.727Z,13.85
2017-04-10T11:19:14.580Z,13.68
2017-04-10T11:20:12.469Z,13.77
2017-04-10T11:21:10.302Z,13.92
2017-04-10T11:22:08.300Z,13.86
2017-04-10T11:23:06.211Z,13.89
2017-04-10T11:24:04.105Z,14.12
2017-04-10T11:25:01.959Z,13.81
2017-04-10T11:25:59.759Z,13.68
2017-04-10T11:26:57.639Z,13.68
2017-04-10T11:27:55.524Z,13.40
2017-04-10T11:28:53.379Z,13.92
2017-04-10T11:29:51.248Z,13.35
2017-04-10T11:30:49.109Z,13.34
2017-04-10T11:31:46.928Z,13.68
2017-04-10T11:32:44.772Z,13.86
2017-04-10T11:33:42.664Z,13.55
2017-04-10T11:34:40.496Z,13.56
2017-04-10T11:35:38.336Z,13.31
2017-04-10T11:36:36.187Z,13.41
2017-04-10T11:37:34.088Z,13.52
2017-04-10T11:38:32.483Z,13.49
2017-04-10T11:39:30.360Z,13.39
2017-04-10T11:40:28.217Z,13.56
2017-04-10T11:41:26.049Z,13.89
2017-04-10T11:42:23.888Z,13.56
2017-04-10T11:43:21.864Z,13.64
2017-04-10T11:44:19.733Z,13.74
2017-04-10T11:45:18.063Z,13.58
2017-04-10T11:46:15.944Z,13.73
2017-04-10T11:47:13.833Z,13.84
2017-04-10T11:48:11.696Z,13.85
2017-04-10T11:49:09.569Z,13.53
2017-04-10T11:50:07.445Z,13.83
2017-04-10T11:51:05.301Z,13.50
2017-04-10T11:52:03.201Z,13.45
2017-04-10T11:53:01.096Z,13.75
2017-04-10T11:53:58.973Z,13.79
2017-04-10T11:54:56.884Z,13.88
2017-04-10T11:55:54.797Z,13.65
2017-04-10T11:56:52.697Z,13.85
2017-04-10T11:57:50.561Z,13.56
2017-04-10T11:58:48.447Z,13.32
2017-04-10T11:59:46.287Z,13.48
2017-04-10T12:00:44.119Z,13.64
2017-04-10T12:01:42.018Z,13.77
2017-04-10T12:02:39.861Z,14.00
2017-04-10T12:03:37.732Z,14.21
2017-04-10T12:04:35.589Z,14.27
2017-04-10T12:05:33.489Z,14.30
2017-04-10T12:06:31.354Z,14.43
2017-04-10T12:07:29.191Z,14.47
2017-04-10T12:08:27.067Z,14.50
2017-04-10T12:09:24.915Z,14.55
2017-04-10T12:10:22.759Z,14.68
2017-04-10T12:11:20.720Z,14.67
2017-04-10T12:12:18.645Z,14.61
2017-04-10T12:13:16.532Z,14.69
2017-04-10T12:14:14.405Z,14.69
2017-04-10T12:15:12.223Z,14.59
2017-04-10T12:16:10.127Z,14.24
2017-04-10T12:17:07.992Z,13.93
2017-04-10T12:18:05.844Z,14.41
2017-04-10T12:19:03.680Z,14.29
2017-04-10T12:20:01.663Z,14.28
2017-04-10T12:20:59.538Z,13.96
2017-04-10T12:21:57.401Z,13.71
2017-04-10T12:22:55.237Z,13.90
2017-04-10T12:23:53.081Z,14.25
2017-04-10T12:24:50.935Z,14.29
2017-04-10T12:25:48.838Z,14.15
2017-04-10T12:26:46.719Z,14.31
2017-04-10T12:27:44.675Z,13.89
2017-04-10T12:28:42.544Z,13.96
2017-04-10T12:29:40.549Z,13.88
2017-04-10T12:30:38.434Z,13.84
2017-04-10T12:31:36.283Z,13.92
2017-04-10T12:32:35.315Z,14.42
2017-04-10T12:33:33.292Z,14.35